createdAt,value
2019-03-12T00:02:11.655Z,4.13
2019-03-12T00:05:15.090Z,10.03
2019-03-12T00:08:18.550Z,5.93
2019-03-12T00:11:21.985Z,6.53
2019-03-12T00:14:25.454Z,6.37
2019-03-12T00:17:28.897Z,7.23
2019-03-12T00:20:32.445Z,8.60
2019-03-12T00:23:35.882Z,6.83
2019-03-12T00:26:39.346Z,7.90
2019-03-12T00:29:42.798Z,8.13
2019-03-12T00:32:46.261Z,9.33
2019-03-12T00:35:49.722Z,5.73
2019-03-12T00:38:53.153Z,6.77
2019-03-12T00:41:56.797Z,7.27
2019-03-12T00:45:00.455Z,5.20
2019-03-12T00:48:04.248Z,6.07
2019-03-12T00:51:07.687Z,7.50
2019-03-12T00:54:11.157Z,7.43
2019-03-12T00:57:14.622Z,9.20
2019-03-12T01:00:19.439Z,8.30
2019-03-12T01:03:22.873Z,7.93
2019-03-12T01:06:26.346Z,6.80
2019-03-12T01:09:29.782Z,4.13
2019-03-12T01:12:33.247Z,7.97
2019-03-12T01:15:36.857Z,6.43
2019-03-12T01:18:40.425Z,6.17
2019-03-12T01:21:43.864Z,8.50
2019-03-12T01:24:47.325Z,10.70
2019-03-12T01:27:50.753Z,7.67
2019-03-12T01:30:54.221Z,9.20
2019-03-12T01:33:57.685Z,10.03
2019-03-12T01:37:01.148Z,9.57
2019-03-12T01:40:07.014Z,9.87
2019-03-12T01:43:10.458Z,6.03
2019-03-12T01:46:13.921Z,8.53
2019-03-12T01:49:17.356Z,7.67
2019-03-12T01:52:20.814Z,8.00
2019-03-12T01:55:24.250Z,6.47
2019-03-12T01:58:27.728Z,8.97
2019-03-12T02:01:31.157Z,5.83
2019-03-12T02:04:34.709Z,8.43
2019-03-12T02:07:38.150Z,7.00
2019-03-12T02:10:41.606Z,10.43
2019-03-12T02:13:45.073Z,8.40
2019-03-12T02:16:48.534Z,8.60
2019-03-12T02:19:51.973Z,8.70
2019-03-12T02:22:55.425Z,8.77
2019-03-12T02:25:58.902Z,8.13
2019-03-12T02:29:02.335Z,8.50
2019-03-12T02:32:07.263Z,6.27
2019-03-12T02:35:10.874Z,7.40
2019-03-12T02:38:14.327Z,7.47
2019-03-12T02:41:17.790Z,5.83
2019-03-12T02:44:21.222Z,7.07
2019-03-12T02:47:24.711Z,8.97
2019-03-12T02:50:28.234Z,8.20
2019-03-12T02:53:31.779Z,9.07
2019-03-12T02:56:35.216Z,9.27
2019-03-12T02:59:38.674Z,8.80
2019-03-12T03:02:42.114Z,10.23
2019-03-12T03:05:50.219Z,8.50
2019-03-12T03:08:53.645Z,6.97
2019-03-12T03:11:57.119Z,9.07
2019-03-12T03:15:04.498Z,8.40
2019-03-12T03:18:08.046Z,8.00
2019-03-12T03:21:11.506Z,9.43
2019-03-12T03:24:14.964Z,9.73
2019-03-12T03:27:18.450Z,17.70
2019-03-12T03:30:24.144Z,8.47
2019-03-12T03:33:27.790Z,7.03
2019-03-12T03:36:31.333Z,10.13
2019-03-12T03:39:34.772Z,6.97
2019-03-12T03:42:38.235Z,8.67
2019-03-12T03:45:41.687Z,7.93
2019-03-12T03:48:45.220Z,8.23
2019-03-12T03:51:48.769Z,10.67
2019-03-12T03:54:52.268Z,10.00
2019-03-12T03:57:55.865Z,9.33
2019-03-12T04:00:59.407Z,12.30
2019-03-12T04:04:02.964Z,10.10
2019-03-12T04:07:06.405Z,11.17
2019-03-12T04:10:11.875Z,10.93
2019-03-12T04:13:15.313Z,10.30
2019-03-12T04:16:18.823Z,13.73
2019-03-12T04:19:22.316Z,9.23
2019-03-12T04:22:25.842Z,9.97
2019-03-12T04:25:29.377Z,11.53
2019-03-12T04:28:32.842Z,10.30
2019-03-12T04:31:36.328Z,9.93
2019-03-12T04:34:39.788Z,8.70
2019-03-12T04:37:43.222Z,11.63
2019-03-12T04:40:46.681Z,10.03
2019-03-12T04:43:50.218Z,8.83
2019-03-12T04:46:53.765Z,12.57
2019-03-12T04:49:57.246Z,10.27
2019-03-12T04:53:00.709Z,9.30
2019-03-12T04:56:04.146Z,10.73
2019-03-12T04:59:07.653Z,9.53
2019-03-12T05:02:11.140Z,8.63
2019-03-12T05:05:14.659Z,12.17
2019-03-12T05:08:18.121Z,12.03
2019-03-12T05:11:21.557Z,8.80
2019-03-12T05:14:27.765Z,9.47
2019-03-12T05:17:31.233Z,9.43
2019-03-12T05:20:34.689Z,7.90
2019-03-12T05:23:38.137Z,7.33
2019-03-12T05:26:41.582Z,10.23
2019-03-12T05:29:45.029Z,7.07
2019-03-12T05:32:48.492Z,5.83
2019-03-12T05:35:51.957Z,9.33
2019-03-12T05:38:55.425Z,8.87
2019-03-12T05:41:58.893Z,7.63
2019-03-12T05:45:02.346Z,7.13
2019-03-12T05:48:05.810Z,9.73
2019-03-12T05:51:09.260Z,8.87
2019-03-12T05:54:12.742Z,7.13
2019-03-12T05:57:16.165Z,6.57
2019-03-12T06:00:25.054Z,7.03
2019-03-12T06:03:28.529Z,6.27
2019-03-12T06:06:31.982Z,8.57
2019-03-12T06:09:35.427Z,5.10
2019-03-12T06:12:38.867Z,3.93
2019-03-12T06:15:42.311Z,6.13
2019-03-12T06:18:45.782Z,3.10
2019-03-12T06:21:49.246Z,4.90
2019-03-12T06:24:52.732Z,6.13
2019-03-12T06:27:56.166Z,6.77
2019-03-12T06:31:10.021Z,7.57
2019-03-12T06:34:15.113Z,6.60
2019-03-12T06:37:20.188Z,5.83
2019-03-12T06:40:34.069Z,4.70
2019-03-12T06:43:39.162Z,6.03
2019-03-12T06:46:59.469Z,7.30
2019-03-12T06:50:22.897Z,7.87
2019-03-12T06:53:44.575Z,6.73
2019-03-12T06:56:55.651Z,6.17
2019-03-12T07:00:03.441Z,8.27
2019-03-12T07:03:23.745Z,9.10
2019-03-12T07:06:31.521Z,9.60
2019-03-12T07:09:36.638Z,5.97
2019-03-12T07:12:47.769Z,11.30
2019-03-12T07:15:58.320Z,9.83
2019-03-12T07:19:03.447Z,8.97
2019-03-12T07:22:24.845Z,8.10
2019-03-12T07:25:29.938Z,9.20
2019-03-12T07:28:35.021Z,6.47
2019-03-12T07:31:42.823Z,8.17
2019-03-12T07:34:47.919Z,10.73
2019-03-12T07:37:55.790Z,8.10
2019-03-12T07:41:28.567Z,7.37
2019-03-12T07:44:32.909Z,7.60
2019-03-12T07:47:42.170Z,6.50
2019-03-12T07:50:47.417Z,10.50
2019-03-12T07:53:59.320Z,8.43
2019-03-12T07:57:17.437Z,9.17
2019-03-12T08:00:22.525Z,8.13
2019-03-12T08:03:33.461Z,8.23
2019-03-12T08:06:41.237Z,8.97
2019-03-12T08:09:54.859Z,9.20
2019-03-12T08:13:05.862Z,10.53
2019-03-12T08:16:19.777Z,11.40
2019-03-12T08:19:41.370Z,9.27
2019-03-12T08:22:46.474Z,8.10
2019-03-12T08:25:57.241Z,9.80
2019-03-12T08:29:05.273Z,9.90
2019-03-12T08:32:10.373Z,12.53
2019-03-12T08:35:31.805Z,13.17
2019-03-12T08:38:36.926Z,12.30
2019-03-12T08:41:47.878Z,10.57
2019-03-12T08:45:11.186Z,11.43
2019-03-12T08:48:15.041Z,9.77
2019-03-12T08:51:20.155Z,10.57
2019-03-12T08:54:53.749Z,10.53
2019-03-12T08:57:51.814Z,12.27
2019-03-12T09:01:02.995Z,11.47
2019-03-12T09:04:32.437Z,11.90
2019-03-12T09:07:40.490Z,10.13
2019-03-12T09:10:45.557Z,13.40
2019-03-12T09:13:53.306Z,8.63
2019-03-12T09:17:16.680Z,12.87
2019-03-12T09:20:30.727Z,9.17
2019-03-12T09:23:45.078Z,9.63
2019-03-12T09:26:50.169Z,7.73
2019-03-12T09:29:58.041Z,12.63
2019-03-12T09:33:03.196Z,12.70
2019-03-12T09:36:24.897Z,13.40
2019-03-12T09:39:29.997Z,11.83
2019-03-12T09:42:50.111Z,11.57
2019-03-12T09:46:03.945Z,9.90
2019-03-12T09:49:09.050Z,8.10
2019-03-12T09:52:17.022Z,8.90
2019-03-12T09:55:38.538Z,10.60
2019-03-12T09:58:46.675Z,10.13
2019-03-12T10:01:59.475Z,7.33
2019-03-12T10:05:10.970Z,10.50
2019-03-12T10:08:16.121Z,6.57
2019-03-12T10:11:21.194Z,7.13
2019-03-12T10:14:38.145Z,6.03
2019-03-12T10:17:52.489Z,7.30
2019-03-12T10:21:15.697Z,6.63
2019-03-12T10:24:28.589Z,10.03
2019-03-12T10:27:48.450Z,7.27
2019-03-12T10:31:09.873Z,6.93
2019-03-12T10:34:29.574Z,6.23
2019-03-12T10:37:27.761Z,4.63
2019-03-12T10:40:32.841Z,5.33
2019-03-12T10:43:36.469Z,10.57
2019-03-12T10:46:41.570Z,5.63
2019-03-12T10:49:45.058Z,4.80
2019-03-12T10:52:48.665Z,6.57
2019-03-12T10:55:52.109Z,5.07
2019-03-12T10:58:55.558Z,4.97
2019-03-12T11:01:59.005Z,5.80
2019-03-12T11:05:02.474Z,6.53
2019-03-12T11:08:06.935Z,5.37
2019-03-12T11:11:10.508Z,6.83
2019-03-12T11:14:13.954Z,6.27
2019-03-12T11:17:17.423Z,5.53
2019-03-12T11:20:25.369Z,5.63
2019-03-12T11:23:28.806Z,5.20
2019-03-12T11:26:32.262Z,4.83
2019-03-12T11:29:35.804Z,7.23
2019-03-12T11:32:39.466Z,6.00
2019-03-12T11:35:42.905Z,8.97
2019-03-12T11:38:46.394Z,9.87
2019-03-12T11:41:50.036Z,6.10
2019-03-12T11:44:53.598Z,5.43
2019-03-12T11:47:57.209Z,6.70
2019-03-12T11:51:00.766Z,4.30
2019-03-12T11:54:04.502Z,4.80
2019-03-12T11:57:07.977Z,7.17
2019-03-12T12:00:24.004Z,5.90
2019-03-12T12:03:27.590Z,7.70
2019-03-12T12:06:31.235Z,5.00
2019-03-12T12:09:34.779Z,4.10
2019-03-12T12:12:40.104Z,3.90
2019-03-12T12:15:43.477Z,7.70
2019-03-12T12:18:46.934Z,5.17
2019-03-12T12:21:50.395Z,4.67
2019-03-12T12:24:53.859Z,6.37
2019-03-12T12:27:57.281Z,5.27
2019-03-12T12:31:00.749Z,4.00
2019-03-12T12:34:04.202Z,4.90
2019-03-12T12:37:07.653Z,4.57
2019-03-12T12:40:16.313Z,6.03
2019-03-12T12:43:19.790Z,6.27
2019-03-12T12:46:23.255Z,7.87
2019-03-12T12:49:26.785Z,4.63
2019-03-12T12:52:30.300Z,4.50
2019-03-12T12:55:33.738Z,6.07
2019-03-12T12:58:37.195Z,7.73
2019-03-12T13:01:40.638Z,5.23
2019-03-12T13:04:44.093Z,5.43
2019-03-12T13:07:49.111Z,4.73
2019-03-12T13:10:52.545Z,6.00
2019-03-12T13:13:56.026Z,3.97
2019-03-12T13:16:59.466Z,8.17
2019-03-12T13:20:02.966Z,4.03
2019-03-12T13:23:06.478Z,4.73
2019-03-12T13:26:09.929Z,4.63
2019-03-12T13:29:13.365Z,7.83
2019-03-12T13:32:16.946Z,5.00
2019-03-12T13:35:21.802Z,6.13
2019-03-12T13:38:25.263Z,3.90
2019-03-12T13:41:28.818Z,5.57
2019-03-12T13:44:33.971Z,6.53
2019-03-12T13:47:37.510Z,5.03
2019-03-12T13:50:41.005Z,4.60
2019-03-12T13:53:44.490Z,6.50
2019-03-12T13:56:48.006Z,7.67
2019-03-12T13:59:51.437Z,4.57
2019-03-12T14:02:55.177Z,5.93
2019-03-12T14:05:58.663Z,5.70
2019-03-12T14:09:06.396Z,3.63
2019-03-12T14:12:10.087Z,3.93
2019-03-12T14:15:19.203Z,4.80
2019-03-12T14:18:22.718Z,4.33
2019-03-12T14:21:26.173Z,6.60
2019-03-12T14:24:29.619Z,7.23
2019-03-12T14:27:33.053Z,3.77
2019-03-12T14:30:36.505Z,5.77
2019-03-12T14:33:39.961Z,4.50
2019-03-12T14:36:43.515Z,5.50
2019-03-12T14:39:46.946Z,4.83
2019-03-12T14:42:50.406Z,4.53
2019-03-12T14:45:54.198Z,6.00
2019-03-12T14:48:57.665Z,6.70
2019-03-12T14:52:04.302Z,8.93
2019-03-12T14:55:07.975Z,8.87
2019-03-12T14:58:11.427Z,4.93
2019-03-12T15:01:14.884Z,7.10
2019-03-12T15:04:18.411Z,6.33
2019-03-12T15:07:21.845Z,6.13
2019-03-12T15:10:25.333Z,6.03
2019-03-12T15:13:28.790Z,7.67
2019-03-12T15:16:32.249Z,5.13
2019-03-12T15:19:35.686Z,4.13
2019-03-12T15:22:39.217Z,4.97
2019-03-12T15:25:42.653Z,5.93
2019-03-12T15:28:46.190Z,4.53
2019-03-12T15:31:49.670Z,4.63
2019-03-12T15:34:53.117Z,5.63
2019-03-12T15:37:56.561Z,3.23
2019-03-12T15:41:00.062Z,3.67
2019-03-12T15:44:03.871Z,5.07
2019-03-12T15:47:08.637Z,4.10
2019-03-12T15:50:18.939Z,3.43
2019-03-12T15:53:22.201Z,4.60
2019-03-12T15:56:25.658Z,6.80
2019-03-12T15:59:29.117Z,7.17
2019-03-12T16:02:32.572Z,3.90
2019-03-12T16:05:36.050Z,5.77
2019-03-12T16:08:39.491Z,5.40
2019-03-12T16:11:42.937Z,4.23
2019-03-12T16:14:46.374Z,6.27
2019-03-12T16:17:49.846Z,4.53
2019-03-12T16:20:53.270Z,5.97
2019-03-12T16:23:57.107Z,5.13
2019-03-12T16:27:03.131Z,4.83
2019-03-12T16:30:14.303Z,10.17
2019-03-12T16:33:17.743Z,4.00
2019-03-12T16:36:21.205Z,4.27
2019-03-12T16:39:24.679Z,4.90
2019-03-12T16:42:35.122Z,6.80
2019-03-12T16:45:33.377Z,4.67
2019-03-12T16:48:38.621Z,3.73
2019-03-12T16:51:42.002Z,4.40
2019-03-12T16:54:45.437Z,5.57
2019-03-12T16:57:48.897Z,7.37
2019-03-12T17:00:52.344Z,5.73
2019-03-12T17:03:55.794Z,5.30
2019-03-12T17:06:59.249Z,3.93
2019-03-12T17:10:02.721Z,4.07
2019-03-12T17:13:06.182Z,3.50
2019-03-12T17:16:09.666Z,3.50
2019-03-12T17:19:14.114Z,3.87
2019-03-12T17:22:17.580Z,4.67
2019-03-12T17:25:21.041Z,4.83
2019-03-12T17:28:24.482Z,4.73
2019-03-12T17:31:27.913Z,4.53
2019-03-12T17:34:36.111Z,3.00
2019-03-12T17:37:36.570Z,5.87
2019-03-12T17:40:40.019Z,4.37
2019-03-12T17:43:43.470Z,3.17
2019-03-12T17:46:46.910Z,3.87
2019-03-12T17:49:50.362Z,6.70
2019-03-12T17:52:53.830Z,6.60
2019-03-12T17:55:57.282Z,3.30
2019-03-12T17:59:00.737Z,5.97
2019-03-12T18:02:04.181Z,3.80
2019-03-12T18:05:09.985Z,4.03
2019-03-12T18:08:13.537Z,3.83
2019-03-12T18:11:16.982Z,4.23
2019-03-12T18:14:20.458Z,4.60
2019-03-12T18:17:23.910Z,9.53
2019-03-12T18:20:27.349Z,4.73
2019-03-12T18:23:30.801Z,3.17
2019-03-12T18:26:34.242Z,3.30
2019-03-12T18:29:37.698Z,3.90
2019-03-12T18:32:43.194Z,3.60
2019-03-12T18:35:46.721Z,3.93
2019-03-12T18:38:52.935Z,3.77
2019-03-12T18:41:55.988Z,2.43
2019-03-12T18:44:59.569Z,5.53
2019-03-12T18:48:03.150Z,2.57
2019-03-12T18:51:06.602Z,4.77
2019-03-12T18:54:10.093Z,3.17
2019-03-12T18:57:13.533Z,4.77
2019-03-12T19:00:16.994Z,4.77
2019-03-12T19:03:20.421Z,4.47
2019-03-12T19:06:23.898Z,3.20
2019-03-12T19:09:27.359Z,6.50
2019-03-12T19:12:30.829Z,6.03
2019-03-12T19:15:34.269Z,2.73
2019-03-12T19:18:37.727Z,3.63
2019-03-12T19:21:41.169Z,5.10
2019-03-12T19:24:44.717Z,4.77
2019-03-12T19:27:59.343Z,2.97
2019-03-12T19:30:55.206Z,3.30
2019-03-12T19:34:00.321Z,2.47
2019-03-12T19:37:03.871Z,2.67
2019-03-12T19:40:16.369Z,3.63
2019-03-12T19:43:19.836Z,3.50
2019-03-12T19:46:23.277Z,3.47
2019-03-12T19:49:26.812Z,2.33
2019-03-12T19:52:30.290Z,5.33
2019-03-12T19:55:39.572Z,2.67
2019-03-12T19:58:43.038Z,1.83
2019-03-12T20:01:47.120Z,3.47
2019-03-12T20:04:50.582Z,2.20
2019-03-12T20:07:54.085Z,3.67
2019-03-12T20:11:18.693Z,2.73
2019-03-12T20:14:49.555Z,1.97
2019-03-12T20:17:59.104Z,2.97
2019-03-12T20:21:14.830Z,2.40
2019-03-12T20:24:52.856Z,2.10
2019-03-12T20:28:17.581Z,2.40
2019-03-12T20:31:39.863Z,1.77
2019-03-12T20:35:05.839Z,2.07
2019-03-12T20:38:30.218Z,2.67
2019-03-12T20:41:56.441Z,4.13
2019-03-12T20:45:15.057Z,1.80
2019-03-12T20:49:09.980Z,18.93
2019-03-12T20:52:27.398Z,2.30
2019-03-12T20:55:39.766Z,2.13
2019-03-12T20:59:19.870Z,2.70
2019-03-12T21:02:38.033Z,2.53
2019-03-12T21:06:01.183Z,2.53
2019-03-12T21:09:16.595Z,1.50
2019-03-12T21:12:51.738Z,4.53
2019-03-12T21:16:06.963Z,2.87
2019-03-12T21:19:37.960Z,10.30
2019-03-12T21:22:56.585Z,1.97
2019-03-12T21:26:18.196Z,2.57
2019-03-12T21:29:43.386Z,2.07
2019-03-12T21:32:46.913Z,2.90
2019-03-12T21:35:50.357Z,2.87
2019-03-12T21:38:53.862Z,1.77
2019-03-12T21:41:57.380Z,2.23
2019-03-12T21:45:00.929Z,2.70
2019-03-12T21:48:04.422Z,2.20
2019-03-12T21:51:07.886Z,2.37
2019-03-12T21:54:11.321Z,2.17
2019-03-12T21:57:14.777Z,3.20
2019-03-12T22:00:20.003Z,2.87
2019-03-12T22:03:23.447Z,3.53
2019-03-12T22:06:26.978Z,2.77
2019-03-12T22:09:30.586Z,2.03
2019-03-12T22:12:34.080Z,5.57
2019-03-12T22:15:37.513Z,3.80
2019-03-12T22:18:40.965Z,2.27
2019-03-12T22:21:55.025Z,2.83
2019-03-12T22:24:58.487Z,5.70
2019-03-12T22:28:01.956Z,2.53
2019-03-12T22:31:05.548Z,2.00
2019-03-12T22:34:08.980Z,1.93
2019-03-12T22:37:12.430Z,2.27
2019-03-12T22:40:16.077Z,3.20
2019-03-12T22:43:19.646Z,3.37
2019-03-12T22:46:23.205Z,3.13
2019-03-12T22:49:26.650Z,4.23
2019-03-12T22:52:30.113Z,2.70
2019-03-12T22:55:33.573Z,3.23
2019-03-12T22:58:37.033Z,2.60
2019-03-12T23:01:40.509Z,4.40
2019-03-12T23:04:43.966Z,2.30
2019-03-12T23:07:47.421Z,2.37
2019-03-12T23:10:51.049Z,4.00
2019-03-12T23:13:54.511Z,2.93
2019-03-12T23:16:57.961Z,3.70
2019-03-12T23:20:01.443Z,6.40
2019-03-12T23:23:04.949Z,3.10
2019-03-12T23:26:08.406Z,3.20
2019-03-12T23:29:11.870Z,2.20
2019-03-12T23:32:16.004Z,3.17
2019-03-12T23:35:21.341Z,2.90
2019-03-12T23:38:24.801Z,4.30
2019-03-12T23:41:28.278Z,2.57
2019-03-12T23:44:31.734Z,2.53
2019-03-12T23:47:35.165Z,3.37
2019-03-12T23:50:38.689Z,2.97
2019-03-12T23:53:42.143Z,2.20
2019-03-12T23:56:45.669Z,3.40
2019-03-12T23:59:49.101Z,3.57
